sensor_id;sensor_type;location;lat;lon;timestamp;temperature;humidity
18575;DHT22;9417;16.484;102.872;2023-06-22T00:00:24;28.60;87.50
18575;DHT22;9417;16.484;102.872;2023-06-22T00:02:32;28.70;86.80
18575;DHT22;9417;16.484;102.872;2023-06-22T00:04:39;28.80;86.20
18575;DHT22;9417;16.484;102.872;2023-06-22T00:06:46;28.80;85.80
18575;DHT22;9417;16.484;102.872;2023-06-22T00:08:56;28.80;84.80
18575;DHT22;9417;16.484;102.872;2023-06-22T00:11:03;28.80;84.20
18575;DHT22;9417;16.484;102.872;2023-06-22T00:13:12;28.80;84.00
18575;DHT22;9417;16.484;102.872;2023-06-22T00:15:20;28.80;83.10
18575;DHT22;9417;16.484;102.872;2023-06-22T00:17:27;28.80;82.70
18575;DHT22;9417;16.484;102.872;2023-06-22T00:19:35;28.90;82.70
18575;DHT22;9417;16.484;102.872;2023-06-22T00:21:45;28.90;82.60
18575;DHT22;9417;16.484;102.872;2023-06-22T00:23:54;28.90;82.20
18575;DHT22;9417;16.484;102.872;2023-06-22T00:26:02;29.00;82.40
18575;DHT22;9417;16.484;102.872;2023-06-22T00:28:09;29.00;82.20
18575;DHT22;9417;16.484;102.872;2023-06-22T00:30:18;29.10;81.90
18575;DHT22;9417;16.484;102.872;2023-06-22T00:32:25;29.20;81.60
18575;DHT22;9417;16.484;102.872;2023-06-22T00:34:33;29.30;81.30
18575;DHT22;9417;16.484;102.872;2023-06-22T00:36:40;29.30;81.00
18575;DHT22;9417;16.484;102.872;2023-06-22T00:38:48;29.40;79.50
18575;DHT22;9417;16.484;102.872;2023-06-22T00:40:58;29.40;79.10
18575;DHT22;9417;16.484;102.872;2023-06-22T00:43:06;29.40;79.00
18575;DHT22;9417;16.484;102.872;2023-06-22T00:45:13;29.40;79.00
18575;DHT22;9417;16.484;102.872;2023-06-22T00:47:21;29.40;78.90
18575;DHT22;9417;16.484;102.872;2023-06-22T00:49:29;29.40;79.00
18575;DHT22;9417;16.484;102.872;2023-06-22T00:51:37;29.40;78.40
18575;DHT22;9417;16.484;102.872;2023-06-22T00:53:52;29.50;78.00
18575;DHT22;9417;16.484;102.872;2023-06-22T00:56:02;29.50;77.80
18575;DHT22;9417;16.484;102.872;2023-06-22T00:58:12;29.60;77.70
18575;DHT22;9417;16.484;102.872;2023-06-22T01:00:20;29.70;77.60
18575;DHT22;9417;16.484;102.872;2023-06-22T01:02:29;29.70;77.60
18575;DHT22;9417;16.484;102.872;2023-06-22T01:04:37;29.70;77.40
18575;DHT22;9417;16.484;102.872;2023-06-22T01:06:52;29.70;77.60
18575;DHT22;9417;16.484;102.872;2023-06-22T01:09:08;29.70;77.00
18575;DHT22;9417;16.484;102.872;2023-06-22T01:11:25;29.70;76.40
18575;DHT22;9417;16.484;102.872;2023-06-22T01:13:37;29.70;76.60
18575;DHT22;9417;16.484;102.872;2023-06-22T01:15:51;29.70;76.80
18575;DHT22;9417;16.484;102.872;2023-06-22T01:18:04;29.70;75.20
18575;DHT22;9417;16.484;102.872;2023-06-22T01:20:14;29.70;74.90
18575;DHT22;9417;16.484;102.872;2023-06-22T01:22:25;29.80;75.10
18575;DHT22;9417;16.484;102.872;2023-06-22T01:24:41;29.80;75.30
18575;DHT22;9417;16.484;102.872;2023-06-22T01:27:00;29.80;75.30
18575;DHT22;9417;16.484;102.872;2023-06-22T01:29:15;29.70;74.70
18575;DHT22;9417;16.484;102.872;2023-06-22T01:31:26;29.80;74.80
18575;DHT22;9417;16.484;102.872;2023-06-22T01:33:35;29.80;74.70
18575;DHT22;9417;16.484;102.872;2023-06-22T01:35:44;29.80;74.50
18575;DHT22;9417;16.484;102.872;2023-06-22T01:37:52;29.90;74.60
18575;DHT22;9417;16.484;102.872;2023-06-22T01:40:00;30.10;74.50
18575;DHT22;9417;16.484;102.872;2023-06-22T01:42:09;30.30;73.60
18575;DHT22;9417;16.484;102.872;2023-06-22T01:44:19;30.50;72.80
18575;DHT22;9417;16.484;102.872;2023-06-22T01:46:27;30.60;72.30
18575;DHT22;9417;16.484;102.872;2023-06-22T01:48:34;30.70;71.90
18575;DHT22;9417;16.484;102.872;2023-06-22T01:50:42;30.90;71.90
18575;DHT22;9417;16.484;102.872;2023-06-22T01:52:50;31.00;71.60
18575;DHT22;9417;16.484;102.872;2023-06-22T01:54:57;31.10;71.40
18575;DHT22;9417;16.484;102.872;2023-06-22T01:57:05;31.20;70.60
18575;DHT22;9417;16.484;102.872;2023-06-22T01:59:17;31.20;70.50
18575;DHT22;9417;16.484;102.872;2023-06-22T02:01:33;31.30;70.50
18575;DHT22;9417;16.484;102.872;2023-06-22T02:03:53;31.30;69.90
18575;DHT22;9417;16.484;102.872;2023-06-22T02:06:07;31.40;70.00
18575;DHT22;9417;16.484;102.872;2023-06-22T02:08:20;31.50;69.70
18575;DHT22;9417;16.484;102.872;2023-06-22T02:10:28;31.50;69.90
18575;DHT22;9417;16.484;102.872;2023-06-22T02:12:37;31.60;68.80
18575;DHT22;9417;16.484;102.872;2023-06-22T02:14:46;31.60;68.50
18575;DHT22;9417;16.484;102.872;2023-06-22T02:16:54;31.80;68.30
18575;DHT22;9417;16.484;102.872;2023-06-22T02:19:04;31.80;67.40
18575;DHT22;9417;16.484;102.872;2023-06-22T02:21:11;31.90;66.80
18575;DHT22;9417;16.484;102.872;2023-06-22T02:23:19;31.90;67.40
18575;DHT22;9417;16.484;102.872;2023-06-22T02:25:26;32.00;67.60
18575;DHT22;9417;16.484;102.872;2023-06-22T02:27:34;32.00;67.30
18575;DHT22;9417;16.484;102.872;2023-06-22T02:29:41;32.10;66.40
18575;DHT22;9417;16.484;102.872;2023-06-22T02:31:50;32.20;66.70
18575;DHT22;9417;16.484;102.872;2023-06-22T02:33:59;32.20;66.50
18575;DHT22;9417;16.484;102.872;2023-06-22T02:36:07;32.30;67.00
18575;DHT22;9417;16.484;102.872;2023-06-22T02:38:14;32.40;66.70
18575;DHT22;9417;16.484;102.872;2023-06-22T02:40:22;32.40;65.80
18575;DHT22;9417;16.484;102.872;2023-06-22T02:42:32;32.50;65.70
18575;DHT22;9417;16.484;102.872;2023-06-22T02:44:40;32.60;65.70
18575;DHT22;9417;16.484;102.872;2023-06-22T02:46:50;32.60;64.40
18575;DHT22;9417;16.484;102.872;2023-06-22T02:48:58;32.70;64.80
18575;DHT22;9417;16.484;102.872;2023-06-22T02:51:06;32.80;65.00
18575;DHT22;9417;16.484;102.872;2023-06-22T02:53:14;32.90;64.90
18575;DHT22;9417;16.484;102.872;2023-06-22T02:55:23;33.00;64.70
18575;DHT22;9417;16.484;102.872;2023-06-22T02:57:34;33.00;64.30
18575;DHT22;9417;16.484;102.872;2023-06-22T02:59:41;33.10;63.90
18575;DHT22;9417;16.484;102.872;2023-06-22T03:01:51;33.10;63.30
18575;DHT22;9417;16.484;102.872;2023-06-22T03:04:02;33.20;63.30
18575;DHT22;9417;16.484;102.872;2023-06-22T03:06:10;33.30;62.60
18575;DHT22;9417;16.484;102.872;2023-06-22T03:08:18;33.30;62.40
18575;DHT22;9417;16.484;102.872;2023-06-22T03:10:26;33.40;62.70
18575;DHT22;9417;16.484;102.872;2023-06-22T03:12:34;33.50;63.00
18575;DHT22;9417;16.484;102.872;2023-06-22T03:14:42;33.50;62.80
18575;DHT22;9417;16.484;102.872;2023-06-22T03:16:52;33.60;62.60
18575;DHT22;9417;16.484;102.872;2023-06-22T03:19:00;33.70;61.90
18575;DHT22;9417;16.484;102.872;2023-06-22T03:21:07;33.80;61.10
18575;DHT22;9417;16.484;102.872;2023-06-22T03:23:15;33.90;60.50
18575;DHT22;9417;16.484;102.872;2023-06-22T03:25:22;33.90;60.20
18575;DHT22;9417;16.484;102.872;2023-06-22T03:27:30;34.00;59.90
18575;DHT22;9417;16.484;102.872;2023-06-22T03:29:37;34.00;59.80
18575;DHT22;9417;16.484;102.872;2023-06-22T03:31:45;34.00;59.40
18575;DHT22;9417;16.484;102.872;2023-06-22T03:33:54;34.10;60.00
18575;DHT22;9417;16.484;102.872;2023-06-22T03:36:03;34.20;60.50
18575;DHT22;9417;16.484;102.872;2023-06-22T03:38:10;34.20;59.90
18575;DHT22;9417;16.484;102.872;2023-06-22T03:40:17;34.30;59.30
18575;DHT22;9417;16.484;102.872;2023-06-22T03:42:26;34.30;58.80
18575;DHT22;9417;16.484;102.872;2023-06-22T03:44:34;34.30;57.70
18575;DHT22;9417;16.484;102.872;2023-06-22T03:46:42;34.30;57.70
18575;DHT22;9417;16.484;102.872;2023-06-22T03:48:49;34.30;58.10
18575;DHT22;9417;16.484;102.872;2023-06-22T03:50:59;34.30;58.20
18575;DHT22;9417;16.484;102.872;2023-06-22T03:53:07;34.40;57.60
18575;DHT22;9417;16.484;102.872;2023-06-22T03:55:15;34.50;56.60
18575;DHT22;9417;16.484;102.872;2023-06-22T03:57:23;34.40;57.20
18575;DHT22;9417;16.484;102.872;2023-06-22T03:59:30;34.50;56.50
18575;DHT22;9417;16.484;102.872;2023-06-22T04:01:38;34.40;56.10
18575;DHT22;9417;16.484;102.872;2023-06-22T04:03:45;34.50;57.00
18575;DHT22;9417;16.484;102.872;2023-06-22T04:05:54;34.50;56.70
18575;DHT22;9417;16.484;102.872;2023-06-22T04:08:03;34.60;56.50
18575;DHT22;9417;16.484;102.872;2023-06-22T04:10:11;34.70;56.50
18575;DHT22;9417;16.484;102.872;2023-06-22T04:12:21;34.60;55.60
18575;DHT22;9417;16.484;102.872;2023-06-22T04:14:28;34.60;56.10
18575;DHT22;9417;16.484;102.872;2023-06-22T04:16:36;34.60;56.80
18575;DHT22;9417;16.484;102.872;2023-06-22T04:18:43;34.60;56.90
18575;DHT22;9417;16.484;102.872;2023-06-22T04:20:51;34.40;57.10
18575;DHT22;9417;16.484;102.872;2023-06-22T04:22:58;34.40;56.80
18575;DHT22;9417;16.484;102.872;2023-06-22T04:25:08;34.50;58.00
18575;DHT22;9417;16.484;102.872;2023-06-22T04:27:15;34.60;56.90
18575;DHT22;9417;16.484;102.872;2023-06-22T04:29:23;34.70;56.50
18575;DHT22;9417;16.484;102.872;2023-06-22T04:31:34;34.70;56.70
18575;DHT22;9417;16.484;102.872;2023-06-22T04:33:43;34.70;56.50
18575;DHT22;9417;16.484;102.872;2023-06-22T04:35:50;34.80;56.20
18575;DHT22;9417;16.484;102.872;2023-06-22T04:37:59;34.90;55.90
18575;DHT22;9417;16.484;102.872;2023-06-22T04:40:10;35.00;56.30
18575;DHT22;9417;16.484;102.872;2023-06-22T04:42:19;35.10;55.60
18575;DHT22;9417;16.484;102.872;2023-06-22T04:44:27;35.10;55.40
18575;DHT22;9417;16.484;102.872;2023-06-22T04:46:34;35.10;55.40
18575;DHT22;9417;16.484;102.872;2023-06-22T04:48:42;35.20;54.80
18575;DHT22;9417;16.484;102.872;2023-06-22T04:50:50;35.20;54.90
18575;DHT22;9417;16.484;102.872;2023-06-22T04:52:58;35.40;56.00
18575;DHT22;9417;16.484;102.872;2023-06-22T04:55:06;35.40;55.40
18575;DHT22;9417;16.484;102.872;2023-06-22T04:57:18;35.40;56.00
18575;DHT22;9417;16.484;102.872;2023-06-22T04:59:27;35.30;55.70
18575;DHT22;9417;16.484;102.872;2023-06-22T05:01:35;35.30;55.40
18575;DHT22;9417;16.484;102.872;2023-06-22T05:03:42;35.40;55.30
18575;DHT22;9417;16.484;102.872;2023-06-22T05:05:50;35.50;54.70
18575;DHT22;9417;16.484;102.872;2023-06-22T05:08:00;35.40;55.10
18575;DHT22;9417;16.484;102.872;2023-06-22T05:10:08;35.40;54.30
18575;DHT22;9417;16.484;102.872;2023-06-22T05:12:18;35.20;55.00
18575;DHT22;9417;16.484;102.872;2023-06-22T05:14:26;35.20;55.60
18575;DHT22;9417;16.484;102.872;2023-06-22T05:16:33;35.20;55.80
18575;DHT22;9417;16.484;102.872;2023-06-22T05:18:41;35.40;55.70
18575;DHT22;9417;16.484;102.872;2023-06-22T05:20:49;35.50;55.40
18575;DHT22;9417;16.484;102.872;2023-06-22T05:22:56;35.70;55.20
18575;DHT22;9417;16.484;102.872;2023-06-22T05:25:05;35.90;55.00
18575;DHT22;9417;16.484;102.872;2023-06-22T05:27:13;36.00;55.20
18575;DHT22;9417;16.484;102.872;2023-06-22T05:29:22;36.10;54.20
18575;DHT22;9417;16.484;102.872;2023-06-22T05:31:30;36.00;52.70
18575;DHT22;9417;16.484;102.872;2023-06-22T05:33:37;35.90;53.30
18575;DHT22;9417;16.484;102.872;2023-06-22T05:35:45;35.90;52.90
18575;DHT22;9417;16.484;102.872;2023-06-22T05:37:52;36.00;52.80
18575;DHT22;9417;16.484;102.872;2023-06-22T05:40:00;36.10;53.70
18575;DHT22;9417;16.484;102.872;2023-06-22T05:42:09;36.20;53.80
18575;DHT22;9417;16.484;102.872;2023-06-22T05:44:17;36.30;52.20
18575;DHT22;9417;16.484;102.872;2023-06-22T05:46:26;36.40;51.70
18575;DHT22;9417;16.484;102.872;2023-06-22T05:48:33;36.30;51.60
18575;DHT22;9417;16.484;102.872;2023-06-22T05:50:40;36.20;52.40
18575;DHT22;9417;16.484;102.872;2023-06-22T05:52:48;36.30;53.30
18575;DHT22;9417;16.484;102.872;2023-06-22T05:54:55;36.30;53.20
18575;DHT22;9417;16.484;102.872;2023-06-22T05:57:03;36.40;52.80
18575;DHT22;9417;16.484;102.872;2023-06-22T05:59:10;36.50;50.70
18575;DHT22;9417;16.484;102.872;2023-06-22T06:01:18;36.50;50.10
18575;DHT22;9417;16.484;102.872;2023-06-22T06:03:27;36.40;49.50
18575;DHT22;9417;16.484;102.872;2023-06-22T06:05:36;36.40;50.00
18575;DHT22;9417;16.484;102.872;2023-06-22T06:07:44;36.50;51.70
18575;DHT22;9417;16.484;102.872;2023-06-22T06:09:51;36.70;51.80
18575;DHT22;9417;16.484;102.872;2023-06-22T06:11:59;36.80;51.40
18575;DHT22;9417;16.484;102.872;2023-06-22T06:14:07;36.80;49.60
18575;DHT22;9417;16.484;102.872;2023-06-22T06:16:15;36.90;50.80
18575;DHT22;9417;16.484;102.872;2023-06-22T06:18:23;37.00;50.50
18575;DHT22;9417;16.484;102.872;2023-06-22T06:20:32;37.00;49.70
18575;DHT22;9417;16.484;102.872;2023-06-22T06:22:39;37.00;47.20
18575;DHT22;9417;16.484;102.872;2023-06-22T06:24:47;37.00;47.40
18575;DHT22;9417;16.484;102.872;2023-06-22T06:26:54;37.00;49.10
18575;DHT22;9417;16.484;102.872;2023-06-22T06:29:01;37.10;50.00
18575;DHT22;9417;16.484;102.872;2023-06-22T06:31:09;37.20;50.50
18575;DHT22;9417;16.484;102.872;2023-06-22T06:33:17;37.20;50.00
18575;DHT22;9417;16.484;102.872;2023-06-22T06:35:30;37.00;49.00
18575;DHT22;9417;16.484;102.872;2023-06-22T06:37:41;36.80;49.80
18575;DHT22;9417;16.484;102.872;2023-06-22T06:39:48;36.50;50.20
18575;DHT22;9417;16.484;102.872;2023-06-22T06:41:55;36.20;50.30
18575;DHT22;9417;16.484;102.872;2023-06-22T06:44:03;36.00;51.30
18575;DHT22;9417;16.484;102.872;2023-06-22T06:46:10;35.80;52.30
18575;DHT22;9417;16.484;102.872;2023-06-22T06:48:18;35.80;52.70
18575;DHT22;9417;16.484;102.872;2023-06-22T06:50:25;35.80;53.00
18575;DHT22;9417;16.484;102.872;2023-06-22T06:52:36;35.80;52.60
18575;DHT22;9417;16.484;102.872;2023-06-22T06:54:44;35.90;51.40
18575;DHT22;9417;16.484;102.872;2023-06-22T06:56:51;36.10;53.00
18575;DHT22;9417;16.484;102.872;2023-06-22T06:58:58;36.30;52.80
18575;DHT22;9417;16.484;102.872;2023-06-22T07:01:06;36.50;51.90
18575;DHT22;9417;16.484;102.872;2023-06-22T07:03:13;36.70;50.30
18575;DHT22;9417;16.484;102.872;2023-06-22T07:05:21;36.90;50.30
18575;DHT22;9417;16.484;102.872;2023-06-22T07:07:28;37.00;49.50
18575;DHT22;9417;16.484;102.872;2023-06-22T07:09:40;36.90;48.60
18575;DHT22;9417;16.484;102.872;2023-06-22T07:11:47;36.90;48.70
18575;DHT22;9417;16.484;102.872;2023-06-22T07:13:55;37.00;48.10
18575;DHT22;9417;16.484;102.872;2023-06-22T07:16:02;37.00;48.60
18575;DHT22;9417;16.484;102.872;2023-06-22T07:18:10;37.00;48.50
18575;DHT22;9417;16.484;102.872;2023-06-22T07:20:17;37.00;48.70
18575;DHT22;9417;16.484;102.872;2023-06-22T07:22:24;37.00;49.10
18575;DHT22;9417;16.484;102.872;2023-06-22T07:24:32;37.10;49.30
18575;DHT22;9417;16.484;102.872;2023-06-22T07:26:41;37.20;48.60
18575;DHT22;9417;16.484;102.872;2023-06-22T07:28:51;37.30;47.40
18575;DHT22;9417;16.484;102.872;2023-06-22T07:30:58;37.30;48.00
18575;DHT22;9417;16.484;102.872;2023-06-22T07:33:06;37.40;48.30
18575;DHT22;9417;16.484;102.872;2023-06-22T07:35:14;37.40;48.70
18575;DHT22;9417;16.484;102.872;2023-06-22T07:37:22;37.50;48.90
18575;DHT22;9417;16.484;102.872;2023-06-22T07:39:30;37.50;48.90
18575;DHT22;9417;16.484;102.872;2023-06-22T07:41:39;37.50;48.00
18575;DHT22;9417;16.484;102.872;2023-06-22T07:43:47;37.50;47.70
18575;DHT22;9417;16.484;102.872;2023-06-22T07:45:56;37.50;48.50
18575;DHT22;9417;16.484;102.872;2023-06-22T07:48:03;37.50;49.30
18575;DHT22;9417;16.484;102.872;2023-06-22T07:50:11;37.50;49.50
18575;DHT22;9417;16.484;102.872;2023-06-22T07:52:18;37.60;48.80
18575;DHT22;9417;16.484;102.872;2023-06-22T07:54:25;37.60;47.80
18575;DHT22;9417;16.484;102.872;2023-06-22T07:56:33;37.60;47.40
18575;DHT22;9417;16.484;102.872;2023-06-22T07:58:42;37.60;47.80
18575;DHT22;9417;16.484;102.872;2023-06-22T08:00:50;37.70;47.80
18575;DHT22;9417;16.484;102.872;2023-06-22T08:02:57;37.70;47.50
18575;DHT22;9417;16.484;102.872;2023-06-22T08:05:05;37.60;47.00
18575;DHT22;9417;16.484;102.872;2023-06-22T08:07:23;37.50;47.10
18575;DHT22;9417;16.484;102.872;2023-06-22T08:09:32;37.50;48.40
18575;DHT22;9417;16.484;102.872;2023-06-22T08:11:39;37.50;46.00
18575;DHT22;9417;16.484;102.872;2023-06-22T08:13:49;37.50;44.80
18575;DHT22;9417;16.484;102.872;2023-06-22T08:15:56;37.60;45.30
18575;DHT22;9417;16.484;102.872;2023-06-22T08:18:03;37.60;45.80
18575;DHT22;9417;16.484;102.872;2023-06-22T08:20:12;37.60;46.20
18575;DHT22;9417;16.484;102.872;2023-06-22T08:22:19;37.60;45.90
18575;DHT22;9417;16.484;102.872;2023-06-22T08:24:26;37.60;46.00
18575;DHT22;9417;16.484;102.872;2023-06-22T08:26:35;37.50;45.30
18575;DHT22;9417;16.484;102.872;2023-06-22T08:28:42;37.50;45.70
18575;DHT22;9417;16.484;102.872;2023-06-22T08:30:54;37.50;46.00
18575;DHT22;9417;16.484;102.872;2023-06-22T08:33:01;37.40;46.40
18575;DHT22;9417;16.484;102.872;2023-06-22T08:35:09;37.20;46.60
18575;DHT22;9417;16.484;102.872;2023-06-22T08:37:17;37.10;47.30
18575;DHT22;9417;16.484;102.872;2023-06-22T08:39:24;37.00;48.70
18575;DHT22;9417;16.484;102.872;2023-06-22T08:41:32;36.80;47.80
18575;DHT22;9417;16.484;102.872;2023-06-22T08:43:40;36.60;48.50
18575;DHT22;9417;16.484;102.872;2023-06-22T08:45:48;36.60;48.10
18575;DHT22;9417;16.484;102.872;2023-06-22T08:47:57;36.60;47.60
18575;DHT22;9417;16.484;102.872;2023-06-22T08:50:06;36.70;47.50
18575;DHT22;9417;16.484;102.872;2023-06-22T08:52:13;36.60;48.30
18575;DHT22;9417;16.484;102.872;2023-06-22T08:54:21;36.50;47.90
18575;DHT22;9417;16.484;102.872;2023-06-22T08:56:29;36.40;47.50
18575;DHT22;9417;16.484;102.872;2023-06-22T08:58:36;36.30;48.40
18575;DHT22;9417;16.484;102.872;2023-06-22T09:00:43;36.30;48.30
18575;DHT22;9417;16.484;102.872;2023-06-22T09:02:51;36.40;48.60
18575;DHT22;9417;16.484;102.872;2023-06-22T09:05:04;36.50;48.10
18575;DHT22;9417;16.484;102.872;2023-06-22T09:07:11;36.60;48.20
18575;DHT22;9417;16.484;102.872;2023-06-22T09:09:20;36.70;47.50
18575;DHT22;9417;16.484;102.872;2023-06-22T09:11:28;36.70;47.00
18575;DHT22;9417;16.484;102.872;2023-06-22T09:13:35;36.80;45.70
18575;DHT22;9417;16.484;102.872;2023-06-22T09:15:43;36.80;46.30
18575;DHT22;9417;16.484;102.872;2023-06-22T09:17:50;36.60;46.20
18575;DHT22;9417;16.484;102.872;2023-06-22T09:20:00;36.50;46.30
18575;DHT22;9417;16.484;102.872;2023-06-22T09:22:10;36.40;46.50
18575;DHT22;9417;16.484;102.872;2023-06-22T09:24:18;36.40;47.60
18575;DHT22;9417;16.484;102.872;2023-06-22T09:26:25;36.40;46.40
18575;DHT22;9417;16.484;102.872;2023-06-22T09:28:33;36.40;46.90
18575;DHT22;9417;16.484;102.872;2023-06-22T09:30:40;36.50;47.50
18575;DHT22;9417;16.484;102.872;2023-06-22T09:32:47;36.50;48.80
18575;DHT22;9417;16.484;102.872;2023-06-22T09:34:55;36.50;48.60
18575;DHT22;9417;16.484;102.872;2023-06-22T09:37:05;36.40;49.90
18575;DHT22;9417;16.484;102.872;2023-06-22T09:39:13;36.20;51.00
18575;DHT22;9417;16.484;102.872;2023-06-22T09:41:20;36.20;52.40
18575;DHT22;9417;16.484;102.872;2023-06-22T09:43:27;36.10;52.90
18575;DHT22;9417;16.484;102.872;2023-06-22T09:45:35;36.00;52.80
18575;DHT22;9417;16.484;102.872;2023-06-22T09:47:43;36.00;52.00
18575;DHT22;9417;16.484;102.872;2023-06-22T09:49:50;36.00;51.80
18575;DHT22;9417;16.484;102.872;2023-06-22T09:52:00;35.90;52.20
18575;DHT22;9417;16.484;102.872;2023-06-22T09:54:09;35.80;52.00
18575;DHT22;9417;16.484;102.872;2023-06-22T09:56:17;35.80;51.80
18575;DHT22;9417;16.484;102.872;2023-06-22T09:58:24;35.80;52.40
18575;DHT22;9417;16.484;102.872;2023-06-22T10:00:32;35.70;52.50
18575;DHT22;9417;16.484;102.872;2023-06-22T10:02:39;35.70;51.50
18575;DHT22;9417;16.484;102.872;2023-06-22T10:04:47;35.50;51.20
18575;DHT22;9417;16.484;102.872;2023-06-22T10:06:55;35.40;53.00
18575;DHT22;9417;16.484;102.872;2023-06-22T10:09:03;35.40;52.00
18575;DHT22;9417;16.484;102.872;2023-06-22T10:11:12;35.40;52.80
18575;DHT22;9417;16.484;102.872;2023-06-22T10:13:20;35.40;52.80
18575;DHT22;9417;16.484;102.872;2023-06-22T10:15:27;35.30;52.10
18575;DHT22;9417;16.484;102.872;2023-06-22T10:17:35;35.30;52.40
18575;DHT22;9417;16.484;102.872;2023-06-22T10:19:42;35.30;52.30
18575;DHT22;9417;16.484;102.872;2023-06-22T10:21:49;35.30;52.50
18575;DHT22;9417;16.484;102.872;2023-06-22T10:23:57;35.20;52.50
18575;DHT22;9417;16.484;102.872;2023-06-22T10:26:07;35.20;52.70
18575;DHT22;9417;16.484;102.872;2023-06-22T10:28:16;35.20;53.70
18575;DHT22;9417;16.484;102.872;2023-06-22T10:30:24;35.20;53.40
18575;DHT22;9417;16.484;102.872;2023-06-22T10:32:31;35.20;53.20
18575;DHT22;9417;16.484;102.872;2023-06-22T10:34:39;35.20;53.20
18575;DHT22;9417;16.484;102.872;2023-06-22T10:36:46;35.20;52.90
18575;DHT22;9417;16.484;102.872;2023-06-22T10:38:54;35.10;53.00
18575;DHT22;9417;16.484;102.872;2023-06-22T10:41:04;35.10;53.00
18575;DHT22;9417;16.484;102.872;2023-06-22T10:43:11;35.00;53.70
18575;DHT22;9417;16.484;102.872;2023-06-22T10:45:20;35.10;53.90
18575;DHT22;9417;16.484;102.872;2023-06-22T10:47:28;35.00;53.70
18575;DHT22;9417;16.484;102.872;2023-06-22T10:49:35;35.00;54.30
18575;DHT22;9417;16.484;102.872;2023-06-22T10:51:42;35.00;54.80
18575;DHT22;9417;16.484;102.872;2023-06-22T10:53:49;35.00;54.40
18575;DHT22;9417;16.484;102.872;2023-06-22T10:55:57;35.00;53.70
18575;DHT22;9417;16.484;102.872;2023-06-22T10:58:04;35.00;54.20
18575;DHT22;9417;16.484;102.872;2023-06-22T11:00:14;34.90;54.30
18575;DHT22;9417;16.484;102.872;2023-06-22T11:02:24;34.90;54.30
18575;DHT22;9417;16.484;102.872;2023-06-22T11:04:32;34.80;53.90
18575;DHT22;9417;16.484;102.872;2023-06-22T11:06:40;34.70;54.10
18575;DHT22;9417;16.484;102.872;2023-06-22T11:08:47;34.70;54.80
18575;DHT22;9417;16.484;102.872;2023-06-22T11:11:09;34.70;55.00
18575;DHT22;9417;16.484;102.872;2023-06-22T11:13:16;34.60;55.80
18575;DHT22;9417;16.484;102.872;2023-06-22T11:15:24;34.60;55.80
18575;DHT22;9417;16.484;102.872;2023-06-22T11:17:33;34.60;56.30
18575;DHT22;9417;16.484;102.872;2023-06-22T11:19:41;34.60;56.90
18575;DHT22;9417;16.484;102.872;2023-06-22T11:21:49;34.60;57.30
18575;DHT22;9417;16.484;102.872;2023-06-22T11:23:56;34.50;57.30
18575;DHT22;9417;16.484;102.872;2023-06-22T11:26:04;34.50;56.70
18575;DHT22;9417;16.484;102.872;2023-06-22T11:28:11;34.40;56.00
18575;DHT22;9417;16.484;102.872;2023-06-22T11:30:19;34.50;55.80
18575;DHT22;9417;16.484;102.872;2023-06-22T11:32:27;34.40;55.90
18575;DHT22;9417;16.484;102.872;2023-06-22T11:34:36;34.30;56.10
18575;DHT22;9417;16.484;102.872;2023-06-22T11:36:43;34.20;56.20
18575;DHT22;9417;16.484;102.872;2023-06-22T11:38:53;34.20;56.00
18575;DHT22;9417;16.484;102.872;2023-06-22T11:41:00;34.20;55.90
18575;DHT22;9417;16.484;102.872;2023-06-22T11:43:07;34.10;55.80
18575;DHT22;9417;16.484;102.872;2023-06-22T11:45:14;34.10;55.80
18575;DHT22;9417;16.484;102.872;2023-06-22T11:47:23;34.00;56.10
18575;DHT22;9417;16.484;102.872;2023-06-22T11:49:30;34.00;56.10
18575;DHT22;9417;16.484;102.872;2023-06-22T11:51:40;33.90;56.00
18575;DHT22;9417;16.484;102.872;2023-06-22T11:53:47;33.90;56.50
18575;DHT22;9417;16.484;102.872;2023-06-22T11:55:55;33.90;57.10
18575;DHT22;9417;16.484;102.872;2023-06-22T11:58:02;33.80;57.40
18575;DHT22;9417;16.484;102.872;2023-06-22T12:00:12;33.80;57.40
18575;DHT22;9417;16.484;102.872;2023-06-22T12:02:22;33.70;57.40
18575;DHT22;9417;16.484;102.872;2023-06-22T12:04:30;33.70;57.50
18575;DHT22;9417;16.484;102.872;2023-06-22T12:06:40;33.60;57.80
18575;DHT22;9417;16.484;102.872;2023-06-22T12:08:48;33.60;57.80
18575;DHT22;9417;16.484;102.872;2023-06-22T12:10:56;33.60;57.80
18575;DHT22;9417;16.484;102.872;2023-06-22T12:13:04;33.50;58.30
18575;DHT22;9417;16.484;102.872;2023-06-22T12:15:11;33.50;59.10
18575;DHT22;9417;16.484;102.872;2023-06-22T12:17:19;33.50;59.40
18575;DHT22;9417;16.484;102.872;2023-06-22T12:19:26;33.40;59.50
18575;DHT22;9417;16.484;102.872;2023-06-22T12:21:34;33.40;59.10
18575;DHT22;9417;16.484;102.872;2023-06-22T12:23:43;33.30;59.60
18575;DHT22;9417;16.484;102.872;2023-06-22T12:25:50;33.20;60.30
18575;DHT22;9417;16.484;102.872;2023-06-22T12:27:58;33.20;60.70
18575;DHT22;9417;16.484;102.872;2023-06-22T12:30:06;33.20;61.40
18575;DHT22;9417;16.484;102.872;2023-06-22T12:32:14;33.10;62.10
18575;DHT22;9417;16.484;102.872;2023-06-22T12:34:23;33.10;63.10
18575;DHT22;9417;16.484;102.872;2023-06-22T12:36:30;33.00;63.10
18575;DHT22;9417;16.484;102.872;2023-06-22T12:38:38;33.00;63.30
18575;DHT22;9417;16.484;102.872;2023-06-22T12:40:47;32.90;63.60
18575;DHT22;9417;16.484;102.872;2023-06-22T12:42:54;32.90;64.00
18575;DHT22;9417;16.484;102.872;2023-06-22T12:45:02;32.80;63.60
18575;DHT22;9417;16.484;102.872;2023-06-22T12:47:10;32.80;63.40
18575;DHT22;9417;16.484;102.872;2023-06-22T12:49:18;32.80;63.40
18575;DHT22;9417;16.484;102.872;2023-06-22T12:51:25;32.80;63.30
18575;DHT22;9417;16.484;102.872;2023-06-22T12:53:33;32.80;63.20
18575;DHT22;9417;16.484;102.872;2023-06-22T12:55:40;32.70;63.20
18575;DHT22;9417;16.484;102.872;2023-06-22T12:57:49;32.70;63.50
18575;DHT22;9417;16.484;102.872;2023-06-22T12:59:57;32.70;63.30
18575;DHT22;9417;16.484;102.872;2023-06-22T13:02:06;32.70;63.50
18575;DHT22;9417;16.484;102.872;2023-06-22T13:04:13;32.60;64.10
18575;DHT22;9417;16.484;102.872;2023-06-22T13:06:21;32.60;64.20
18575;DHT22;9417;16.484;102.872;2023-06-22T13:08:28;32.60;64.50
18575;DHT22;9417;16.484;102.872;2023-06-22T13:10:56;32.60;65.40
18575;DHT22;9417;16.484;102.872;2023-06-22T13:13:05;32.50;65.70
18575;DHT22;9417;16.484;102.872;2023-06-22T13:15:13;32.50;65.40
18575;DHT22;9417;16.484;102.872;2023-06-22T13:17:20;32.40;66.00